M I D A S
Marine Information and Data Acquisition System
Tripno 948 of the Zeeleeuw from 2005-07-08 06:37:41 to 2005-07-08 14:21:59
Back to CruiseResearch ActivitiesStationsMapUnderway DataData graphs

EquipmentUnitsComment
TimeDGPSUTC
LatitudeDGPSDM.mWGS84
LongitudeDGPSDM.mWGS84
HeadingGyrodeg 
SOGDGPSknotsSpeed over ground
COGDGPSdegCourse over ground
DepthEcho soundermeters200 kHz
Missing or incorrect values are displayed as -999
Navigation data collected by the RV Zeeleeuw from 2005-07-08 06:32:46 to 2005-07-08 14:33:27
                                                                                    Next 1000 lines
Time Latitude Longitude Heading SOG COG Depth
2005-07-08 06:32:57 51°13.681 2°55.905 126.9 -999 270 8.1
2005-07-08 06:33:02 51°13.681 2°55.905 126.6 -999 270 8.2
2005-07-08 06:33:07 51°13.681 2°55.905 126.8 -999 270 -999
2005-07-08 06:33:11 51°13.681 2°55.905 127.5 -999 270 -999
2005-07-08 06:33:15 51°13.681 2°55.905 128.1 -999 275 8.1
2005-07-08 06:33:22 51°13.681 2°55.905 128.3 -999 275 8.1
2005-07-08 06:33:27 51°13.681 2°55.905 128.4 -999 275 8.2
2005-07-08 06:33:32 51°13.681 2°55.905 128.6 -999 275 -999
2005-07-08 06:33:37 51°13.682 2°55.905 128.9 -999 275 8.1
2005-07-08 06:33:42 51°13.681 2°55.905 129.1 -999 297 8.1
2005-07-08 06:33:46 51°13.681 2°55.905 129.2 -999 4 -999
2005-07-08 06:33:51 51°13.681 2°55.905 129.4 -999 333 8.2
2005-07-08 06:33:56 51°13.68 2°55.905 129.6 -999 315 8.1
2005-07-08 06:34:01 51°13.68 2°55.905 129.7 -999 315 8.1
2005-07-08 06:34:06 51°13.68 2°55.905 129.8 -999 315 8.1
2005-07-08 06:34:12 51°13.68 2°55.905 129.9 -999 315 8.1
2005-07-08 06:34:16 51°13.68 2°55.905 130.1 -999 305 8.1
2005-07-08 06:34:21 51°13.68 2°55.905 130.3 -999 305 8.1
2005-07-08 06:34:26 51°13.68 2°55.905 130.5 -999 305 8.2
2005-07-08 06:34:31 51°13.681 2°55.905 130.6 -999 305 8.1
2005-07-08 06:34:36 51°13.681 2°55.905 130.6 -999 317 8.1
2005-07-08 06:34:42 51°13.681 2°55.905 130.7 -999 317 8.2
2005-07-08 06:34:46 51°13.681 2°55.904 130.7 -999 61 8.1
2005-07-08 06:34:52 51°13.681 2°55.904 130.7 -999 184 8.2
2005-07-08 06:34:56 51°13.681 2°55.904 130.8 -999 109 8.2
2005-07-08 06:35:02 51°13.682 2°55.904 130.8 -999 29 8.2
2005-07-08 06:35:06 51°13.682 2°55.904 130.8 -999 57 8.2
2005-07-08 06:35:11 51°13.682 2°55.904 130.6 -999 57 8.2
2005-07-08 06:35:16 51°13.682 2°55.904 130.4 -999 46 8.2
2005-07-08 06:35:22 51°13.682 2°55.904 130.1 -999 46 8.2
2005-07-08 06:35:27 51°13.682 2°55.904 130 -999 341 8.2
2005-07-08 06:35:31 51°13.682 2°55.904 129.9 -999 308 8.1
2005-07-08 06:35:37 51°13.682 2°55.904 129.9 -999 281 8.2
2005-07-08 06:35:42 51°13.682 2°55.904 130.1 -999 281 8.1
2005-07-08 06:35:47 51°13.682 2°55.904 130.3 -999 281 8.1
2005-07-08 06:35:51 51°13.682 2°55.904 130.4 -999 142 8.1
2005-07-08 06:35:56 51°13.682 2°55.904 130.4 -999 134 8.2
2005-07-08 06:36:02 51°13.682 2°55.904 130.4 -999 123 8.1
2005-07-08 06:36:07 51°13.682 2°55.904 130.2 -999 103 8.1
2005-07-08 06:36:11 51°13.682 2°55.904 130 -999 103 8.1
2005-07-08 06:36:16 51°13.682 2°55.904 129.9 -999 69 8.1
2005-07-08 06:36:22 51°13.682 2°55.904 129.6 -999 69 8.1
2005-07-08 06:36:26 51°13.682 2°55.904 129.3 -999 67 8.2
2005-07-08 06:36:31 51°13.682 2°55.904 128.8 -999 67 8.1
2005-07-08 06:36:36 51°13.682 2°55.904 128.4 -999 326 8.2
2005-07-08 06:36:42 51°13.683 2°55.904 128.1 -999 344 8.1
2005-07-08 06:36:47 51°13.683 2°55.904 128.1 -999 344 8.1
2005-07-08 06:36:52 51°13.682 2°55.904 128.1 -999 344 -999
2005-07-08 06:36:57 51°13.682 2°55.904 128.2 -999 344 8.1
2005-07-08 06:37:02 51°13.682 2°55.904 128.4 -999 344 8.1
2005-07-08 06:37:06 51°13.683 2°55.904 128.4 -999 344 8.1
2005-07-08 06:37:11 51°13.683 2°55.904 128.1 -999 -999 8.1
2005-07-08 06:37:17 51°13.682 2°55.904 128 -999 333 8.1
2005-07-08 06:37:22 51°13.682 2°55.904 127.7 -999 333 8
2005-07-08 06:37:26 51°13.682 2°55.904 126.7 -999 333 8
2005-07-08 06:37:31 51°13.682 2°55.904 125.3 -999 59 8
2005-07-08 06:37:37 51°13.682 2°55.904 124 -999 59 8.1
2005-07-08 06:37:42 51°13.682 2°55.905 123 -999 123 8.1
2005-07-08 06:37:46 51°13.682 2°55.905 122.2 -999 188 8.1
2005-07-08 06:37:51 51°13.682 2°55.904 121.5 -999 188 -999
2005-07-08 06:37:55 51°13.682 2°55.905 120.9 -999 173 8.1
2005-07-08 06:38:02 51°13.682 2°55.905 119.9 -999 173 -999
2005-07-08 06:38:07 51°13.682 2°55.904 119.1 -999 173 -999
2005-07-08 06:38:11 51°13.682 2°55.904 117.9 -999 205 8.1
2005-07-08 06:38:17 51°13.682 2°55.905 117 -999 205 8.1
2005-07-08 06:38:21 51°13.681 2°55.905 115.9 -999 205 8.1
2005-07-08 06:38:26 51°13.681 2°55.904 115.3 -999 205 8.1
2005-07-08 06:38:31 51°13.682 2°55.904 114.4 -999 214 8.1
2005-07-08 06:38:36 51°13.682 2°55.904 113.8 0.4 289 8.1
2005-07-08 06:38:42 51°13.682 2°55.901 113.8 0.4 289 8.2
2005-07-08 06:38:46 51°13.683 2°55.899 113.9 0.4 289 8.2
2005-07-08 06:38:51 51°13.684 2°55.896 114 0.4 289 8.2
2005-07-08 06:38:57 51°13.685 2°55.891 114.1 0.4 289 8.2
2005-07-08 06:39:02 51°13.687 2°55.887 114 2.3 297 -999
2005-07-08 06:39:07 51°13.689 2°55.881 113.3 2.6 296 -999
2005-07-08 06:39:12 51°13.69 2°55.875 112.4 2.6 296 -999
2005-07-08 06:39:17 51°13.692 2°55.868 111.7 3.1 294 -999
2005-07-08 06:39:22 51°13.694 2°55.862 111 3.3 293 -999
2005-07-08 06:39:27 51°13.696 2°55.854 110.7 3.5 293 -999
2005-07-08 06:39:32 51°13.698 2°55.846 110.4 3.5 293 -999
2005-07-08 06:39:37 51°13.7 2°55.837 110.1 3.5 293 -999
2005-07-08 06:39:42 51°13.702 2°55.829 109.7 3.5 293 -999
2005-07-08 06:39:47 51°13.705 2°55.818 108.8 3.5 293 -999
2005-07-08 06:39:52 51°13.707 2°55.808 108 3.5 293 -999
2005-07-08 06:39:57 51°13.71 2°55.798 106.4 4.9 290 -999
2005-07-08 06:40:02 51°13.712 2°55.788 104.6 4.9 290 -999
2005-07-08 06:40:07 51°13.714 2°55.777 102.5 4.9 287 -999
2005-07-08 06:40:12 51°13.715 2°55.767 99.6 4.9 285 -999
2005-07-08 06:40:16 51°13.716 2°55.758 97.6 4.9 285 11.1
2005-07-08 06:40:22 51°13.718 2°55.748 95.8 4.5 282 -999
2005-07-08 06:40:27 51°13.719 2°55.74 94.3 4.5 282 11.5
2005-07-08 06:40:31 51°13.72 2°55.734 91.4 4.5 282 11
2005-07-08 06:40:36 51°13.721 2°55.731 88.1 4.5 282 10.4
2005-07-08 06:40:42 51°13.722 2°55.73 82.7 1.9 288 10.2
2005-07-08 06:40:46 51°13.723 2°55.73 74.6 1.9 288 10.2
2005-07-08 06:40:51 51°13.725 2°55.732 66.7 1.2 24 10
2005-07-08 06:40:56 51°13.727 2°55.732 58.4 1.2 24 10.1
2005-07-08 06:41:02 51°13.728 2°55.732 52.9 0.8 8 9.7
2005-07-08 06:41:06 51°13.728 2°55.731 48.7 0.7 325 9.6
2005-07-08 06:41:11 51°13.728 2°55.729 44.5 0.8 309 9.5
2005-07-08 06:41:15 51°13.728 2°55.727 41.3 1.2 256 9.6
2005-07-08 06:41:22 51°13.726 2°55.723 38.7 1.2 256 9.8
2005-07-08 06:41:26 51°13.725 2°55.721 36 1.8 234 9.9
2005-07-08 06:41:32 51°13.722 2°55.716 33.3 1.8 234 -999
2005-07-08 06:41:36 51°13.721 2°55.714 30.4 2 224 -999
2005-07-08 06:41:42 51°13.719 2°55.712 27.7 1.9 224 -999
2005-07-08 06:41:47 51°13.72 2°55.711 23.9 1.1 232 -999
2005-07-08 06:41:51 51°13.72 2°55.711 19 0.5 322 10
2005-07-08 06:41:55 51°13.721 2°55.71 13.7 0.6 336 4.8
2005-07-08 06:42:02 51°13.722 2°55.71 8 0.7 345 9.7
2005-07-08 06:42:06 51°13.724 2°55.709 3.6 1.1 349 9.7
2005-07-08 06:42:11 51°13.726 2°55.708 358.5 1.1 349 9.8
2005-07-08 06:42:16 51°13.729 2°55.706 352.7 1.9 342 9.8
2005-07-08 06:42:22 51°13.733 2°55.704 347.8 2.3 336 9.7
2005-07-08 06:42:26 51°13.735 2°55.702 344.6 2.3 336 9.6
2005-07-08 06:42:31 51°13.74 2°55.698 342.6 3.2 335 9.5
2005-07-08 06:42:35 51°13.744 2°55.696 342.3 3.2 335 9.5
2005-07-08 06:42:42 51°13.75 2°55.691 342.4 3.6 338 9.3
2005-07-08 06:42:46 51°13.755 2°55.688 342.6 4.5 336 9
2005-07-08 06:42:52 51°13.763 2°55.683 342.3 4.5 336 8.8
2005-07-08 06:42:56 51°13.769 2°55.679 342.1 5 335 8.8
2005-07-08 06:43:02 51°13.777 2°55.674 342.8 5.5 337 8.8
2005-07-08 06:43:06 51°13.783 2°55.67 343.5 5.5 337 8.9
2005-07-08 06:43:11 51°13.792 2°55.664 343.6 5.9 337 8.9
2005-07-08 06:43:15 51°13.799 2°55.659 343.6 6.6 338 9.2
2005-07-08 06:43:22 51°13.81 2°55.652 343.9 6.6 338 9.6
2005-07-08 06:43:26 51°13.819 2°55.647 344.6 6.6 338 9.6
2005-07-08 06:43:32 51°13.829 2°55.642 345.4 6.6 338 9.5
2005-07-08 06:43:36 51°13.838 2°55.637 345.8 7.2 342 9.3
2005-07-08 06:43:42 51°13.848 2°55.631 345.8 7.5 342 9
2005-07-08 06:43:46 51°13.856 2°55.627 345.7 7.5 342 8.9
2005-07-08 06:43:51 51°13.868 2°55.621 345.5 7.8 342 9.1
2005-07-08 06:43:55 51°13.876 2°55.617 345.4 7.8 342 9
2005-07-08 06:44:01 51°13.889 2°55.61 345.4 8 342 8.8
2005-07-08 06:44:06 51°13.9 2°55.604 345.4 8 342 9.2
2005-07-08 06:44:11 51°13.91 2°55.598 344.9 8.2 341 9.4
2005-07-08 06:44:17 51°13.922 2°55.591 344.4 8.2 341 10
2005-07-08 06:44:22 51°13.933 2°55.584 343.7 8.3 339 9.8
2005-07-08 06:44:26 51°13.941 2°55.579 342.8 8.3 339 10.3
2005-07-08 06:44:31 51°13.953 2°55.572 342.3 8.3 339 9.8
2005-07-08 06:44:37 51°13.965 2°55.564 342.3 8.3 339 10
2005-07-08 06:44:42 51°13.976 2°55.557 342.4 8.4 338 10.1
2005-07-08 06:44:47 51°13.986 2°55.549 341.3 8.4 336 9.8
2005-07-08 06:44:51 51°13.996 2°55.542 339.1 8.5 335 9.9
2005-07-08 06:44:57 51°14.008 2°55.532 338.1 8.6 334 10.2
2005-07-08 06:45:02 51°14.019 2°55.523 337.2 8.6 334 9.6
2005-07-08 06:45:06 51°14.028 2°55.515 336.6 8.6 334 9.8
2005-07-08 06:45:11 51°14.04 2°55.505 336.1 9 332 9.9
2005-07-08 06:45:17 51°14.052 2°55.494 336 9.3 332 9.5
2005-07-08 06:45:21 51°14.063 2°55.485 335.5 9.3 332 9.5
2005-07-08 06:45:26 51°14.074 2°55.475 335.3 9.3 332 9.7
2005-07-08 06:45:31 51°14.087 2°55.463 335.2 9.3 332 9.4
2005-07-08 06:45:36 51°14.098 2°55.453 335.3 9.3 332 9.4
2005-07-08 06:45:42 51°14.113 2°55.439 335 10.2 330 9.1
2005-07-08 06:45:46 51°14.123 2°55.43 334.4 10.4 329 9.4
2005-07-08 06:45:51 51°14.137 2°55.417 334.5 10.6 330 9.6
2005-07-08 06:45:57 51°14.152 2°55.403 334.5 10.6 330 9.5
2005-07-08 06:46:01 51°14.163 2°55.391 333.2 10.6 330 9.9
2005-07-08 06:46:06 51°14.176 2°55.376 330.9 11.2 326 9.6
2005-07-08 06:46:11 51°14.189 2°55.362 329.2 11.3 325 9.9
2005-07-08 06:46:16 51°14.201 2°55.346 328.6 11.3 324 9.9
2005-07-08 06:46:22 51°14.215 2°55.329 327.7 11.3 324 9.5
2005-07-08 06:46:26 51°14.225 2°55.316 326.3 11.5 320 9.9
2005-07-08 06:46:31 51°14.237 2°55.297 323.8 11.5 320 9.6
2005-07-08 06:46:36 51°14.249 2°55.279 321.4 11.5 316 9.6
2005-07-08 06:46:41 51°14.26 2°55.261 320.4 11.5 315 9.6
2005-07-08 06:46:46 51°14.27 2°55.244 319.3 11.5 315 9.6
2005-07-08 06:46:51 51°14.282 2°55.224 318 11.6 313 9.7
2005-07-08 06:46:56 51°14.292 2°55.206 317.4 11.6 313 9.6
2005-07-08 06:47:02 51°14.304 2°55.183 316.4 11.6 311 9.7
2005-07-08 06:47:06 51°14.313 2°55.167 315.8 11.6 311 9.4
2005-07-08 06:47:11 51°14.324 2°55.146 314.7 11.6 310 9.5
2005-07-08 06:47:16 51°14.333 2°55.128 314.2 11.6 309 9.4
2005-07-08 06:47:22 51°14.345 2°55.102 313.6 11.6 309 9.3
2005-07-08 06:47:26 51°14.353 2°55.083 312.5 11.6 307 9.3
2005-07-08 06:47:31 51°14.363 2°55.063 311.4 11.6 307 9.2
2005-07-08 06:47:35 51°14.371 2°55.046 311.4 11.8 307 9.3
2005-07-08 06:47:41 51°14.383 2°55.021 312.5 11.9 307 9.5
2005-07-08 06:47:46 51°14.392 2°55.001 312.5 12.1 306 9.4
2005-07-08 06:47:51 51°14.403 2°54.977 311.5 12.1 306 9.4
2005-07-08 06:47:56 51°14.412 2°54.955 311.5 12.1 306 9.6
2005-07-08 06:48:02 51°14.423 2°54.93 311.3 12.1 306 9.7
2005-07-08 06:48:06 51°14.431 2°54.911 310.9 12.1 306 9.7
2005-07-08 06:48:11 51°14.442 2°54.885 311 12.9 304 9.9
2005-07-08 06:48:16 51°14.454 2°54.861 313 13 307 9.6
2005-07-08 06:48:22 51°14.466 2°54.837 315.6 13 307 9.6
2005-07-08 06:48:26 51°14.475 2°54.818 317.5 13 307 9.5
2005-07-08 06:48:31 51°14.487 2°54.792 317.5 13.4 306 9.5
2005-07-08 06:48:37 51°14.501 2°54.765 317.7 13.5 308 9.7
2005-07-08 06:48:42 51°14.513 2°54.744 319.3 13.5 308 9.5
2005-07-08 06:48:46 51°14.524 2°54.728 322.8 13.5 308 9.3
2005-07-08 06:48:51 51°14.539 2°54.708 327 13.2 320 9.3
2005-07-08 06:48:57 51°14.555 2°54.688 330.7 13.2 320 9
2005-07-08 06:49:01 51°14.568 2°54.673 333 13.1 323 9.1
2005-07-08 06:49:06 51°14.583 2°54.656 335 13.1 323 9
2005-07-08 06:49:11 51°14.598 2°54.639 336 13.1 325 8.9
2005-07-08 06:49:15 51°14.609 2°54.626 336 13.1 325 9
2005-07-08 06:49:21 51°14.627 2°54.605 335.4 13 324 8.8
2005-07-08 06:49:26 51°14.64 2°54.589 334.9 13 324 9
2005-07-08 06:49:31 51°14.656 2°54.57 334.3 13 324 8.8
2005-07-08 06:49:37 51°14.672 2°54.55 333.8 13 324 8.7
2005-07-08 06:49:42 51°14.686 2°54.534 333.6 13 324 8.9
2005-07-08 06:49:46 51°14.7 2°54.519 333.8 13 324 8.8
2005-07-08 06:49:52 51°14.716 2°54.501 335.3 -999 -999 8.7
2005-07-08 06:49:56 51°14.729 2°54.488 336.2 13.1 327 8.8
2005-07-08 06:50:01 51°14.744 2°54.471 336.7 13.1 327 8.9
2005-07-08 06:50:06 51°14.76 2°54.456 337.4 13 327 8.6
2005-07-08 06:50:11 51°14.775 2°54.44 337.7 13 327 8.6
2005-07-08 06:50:15 51°14.787 2°54.428 337.7 13 327 8.6
2005-07-08 06:50:22 51°14.807 2°54.407 337.7 13.1 327 8.6
2005-07-08 06:50:26 51°14.819 2°54.395 337.7 13.1 327 8.5
2005-07-08 06:50:31 51°14.834 2°54.379 337.6 13.1 327 8.5
2005-07-08 06:50:37 51°14.852 2°54.36 337.1 13 327 8.5
2005-07-08 06:50:42 51°14.868 2°54.345 337.2 13 328 8.3
2005-07-08 06:50:46 51°14.88 2°54.333 337.6 13 328 8.3
2005-07-08 06:50:51 51°14.895 2°54.318 337.9 13 328 8.2
2005-07-08 06:50:56 51°14.912 2°54.302 338.2 13 328 8.2
2005-07-08 06:51:02 51°14.929 2°54.286 338.7 13 328 7.8
2005-07-08 06:51:06 51°14.942 2°54.274 338.7 13 328 7.8
2005-07-08 06:51:11 51°14.957 2°54.259 338.6 12.6 329 7.8
2005-07-08 06:51:17 51°14.974 2°54.242 338.2 12.6 329 7.5
2005-07-08 06:51:21 51°14.988 2°54.229 337.9 12.7 328 7.7
2005-07-08 06:51:27 51°15.004 2°54.212 337.5 12.7 328 7.6
2005-07-08 06:51:31 51°15.017 2°54.198 336.7 12.7 328 7.6
2005-07-08 06:51:35 51°15.029 2°54.186 336.2 12.7 328 7.7
2005-07-08 06:51:41 51°15.046 2°54.167 335.9 12.8 326 7.7
2005-07-08 06:51:46 51°15.061 2°54.151 335.7 12.8 326 7.7
2005-07-08 06:51:51 51°15.076 2°54.135 335.7 12.9 326 7.7
2005-07-08 06:51:57 51°15.092 2°54.119 335.8 12.9 326 7.9
2005-07-08 06:52:02 51°15.107 2°54.103 336.4 12.9 326 7.9
2005-07-08 06:52:07 51°15.122 2°54.088 337.2 12.9 326 7.9
2005-07-08 06:52:11 51°15.136 2°54.075 337.8 13 328 8
2005-07-08 06:52:17 51°15.153 2°54.059 338.5 13 328 8
2005-07-08 06:52:22 51°15.168 2°54.044 338.7 13 329 8.1
2005-07-08 06:52:26 51°15.182 2°54.03 338.5 13 329 8.1
2005-07-08 06:52:32 51°15.199 2°54.013 337.8 13 329 8.2
2005-07-08 06:52:36 51°15.211 2°54.001 337.4 13 326 8.3
2005-07-08 06:52:41 51°15.228 2°53.982 336.4 13.1 326 8.3
2005-07-08 06:52:46 51°15.241 2°53.967 335.3 13.2 325 8.3
2005-07-08 06:52:51 51°15.258 2°53.949 334.5 13.2 325 8.4
2005-07-08 06:52:56 51°15.271 2°53.933 333.9 13.3 324 8.4
2005-07-08 06:53:01 51°15.288 2°53.914 333.8 13.3 325 8.6
2005-07-08 06:53:06 51°15.302 2°53.897 333.5 13.3 324 8.7
2005-07-08 06:53:11 51°15.317 2°53.88 333.6 13.2 325 8.8
2005-07-08 06:53:17 51°15.334 2°53.862 334.1 13.2 325 8.8
2005-07-08 06:53:22 51°15.349 2°53.845 334.5 13.2 325 8.7
2005-07-08 06:53:26 51°15.363 2°53.83 334.9 13.2 325 8.9
2005-07-08 06:53:31 51°15.378 2°53.814 335.5 13.2 325 8.9
2005-07-08 06:53:36 51°15.394 2°53.798 336 13.3 327 9
2005-07-08 06:53:42 51°15.411 2°53.78 336.4 13.3 327 9.1
2005-07-08 06:53:46 51°15.425 2°53.765 336.4 13.3 327 9.1
2005-07-08 06:53:51 51°15.439 2°53.751 336.5 13.3 326 9
2005-07-08 06:53:55 51°15.453 2°53.737 336.6 13.4 327 9
2005-07-08 06:54:02 51°15.473 2°53.715 336.7 13.4 327 9.4
2005-07-08 06:54:06 51°15.485 2°53.702 336.4 13.4 327 9.5
2005-07-08 06:54:11 51°15.502 2°53.683 335.8 13.4 327 9.4
2005-07-08 06:54:15 51°15.513 2°53.671 335.4 13.4 325 9.6
2005-07-08 06:54:22 51°15.534 2°53.647 335.1 13.3 325 9.5
2005-07-08 06:54:26 51°15.547 2°53.632 334.8 13.3 325 9.6
2005-07-08 06:54:31 51°15.561 2°53.616 334.8 13.3 325 9.7
2005-07-08 06:54:37 51°15.578 2°53.597 335.2 13.3 325 9.8
2005-07-08 06:54:41 51°15.592 2°53.581 335.6 13.3 325 9.6
2005-07-08 06:54:46 51°15.608 2°53.564 335.7 13.3 325 9.8
2005-07-08 06:54:51 51°15.623 2°53.548 336 13.2 325 9.9
2005-07-08 06:54:55 51°15.635 2°53.535 336.1 13.3 325 9.8
2005-07-08 06:55:01 51°15.653 2°53.514 336 13.3 326 10.2
2005-07-08 06:55:06 51°15.668 2°53.498 335.9 13.3 326 10.1
2005-07-08 06:55:12 51°15.684 2°53.48 336.1 13.3 326 10
2005-07-08 06:55:16 51°15.697 2°53.467 336 13.3 326 10.1
2005-07-08 06:55:21 51°15.713 2°53.449 336.2 13.2 326 10.1
2005-07-08 06:55:26 51°15.727 2°53.435 336.7 13.2 326 10.2
2005-07-08 06:55:31 51°15.742 2°53.419 337.5 13.2 327 10.3
2005-07-08 06:55:37 51°15.761 2°53.401 337.8 13.2 327 10.2
2005-07-08 06:55:42 51°15.777 2°53.385 338.7 13.2 327 10.2
2005-07-08 06:55:46 51°15.789 2°53.373 338.9 13.2 329 10.4
2005-07-08 06:55:51 51°15.806 2°53.357 339.1 13.3 328 10.2
2005-07-08 06:55:57 51°15.824 2°53.34 338.9 13.2 329 10.4
2005-07-08 06:56:02 51°15.839 2°53.324 339.2 13.2 329 10.4
2005-07-08 06:56:06 51°15.851 2°53.312 339 13.1 329 10.5
2005-07-08 06:56:11 51°15.868 2°53.296 339.1 13.1 329 10.3
2005-07-08 06:56:17 51°15.887 2°53.278 339.1 13.1 329 10.5
2005-07-08 06:56:22 51°15.901 2°53.264 339.2 13.1 329 10.5
2005-07-08 06:56:26 51°15.915 2°53.251 339.4 13.1 329 10.7
2005-07-08 06:56:31 51°15.931 2°53.235 339.5 13.1 329 10.5
2005-07-08 06:56:36 51°15.947 2°53.22 339.5 13.1 329 10.6
2005-07-08 06:56:42 51°15.962 2°53.204 339 12.9 328 11
2005-07-08 06:56:46 51°15.975 2°53.193 339 12.9 328 10.8
2005-07-08 06:56:51 51°15.991 2°53.176 338.9 12.9 328 10.6
2005-07-08 06:56:56 51°16.007 2°53.161 339 12.9 328 10.6
2005-07-08 06:57:01 51°16.022 2°53.146 339.4 12.9 328 10.8
2005-07-08 06:57:06 51°16.036 2°53.133 339.4 12.9 329 10.9
2005-07-08 06:57:11 51°16.053 2°53.116 339.5 13 329 11.2
2005-07-08 06:57:16 51°16.068 2°53.102 339.5 13.1 329 11.1
2005-07-08 06:57:22 51°16.086 2°53.085 339.8 13 329 10.9
2005-07-08 06:57:26 51°16.098 2°53.074 339.8 13.1 329 10.9
2005-07-08 06:57:31 51°16.115 2°53.057 339.9 13.1 329 11
2005-07-08 06:57:36 51°16.13 2°53.044 339.8 13.2 329 11.2
2005-07-08 06:57:41 51°16.146 2°53.029 340.1 12.9 331 10.8
2005-07-08 06:57:46 51°16.163 2°53.016 341.4 12.9 332 11
2005-07-08 06:57:51 51°16.178 2°53.003 342.5 12.9 332 11.2
2005-07-08 06:57:56 51°16.192 2°52.992 343.6 13 334 11.1
2005-07-08 06:58:02 51°16.212 2°52.977 344.3 12.8 334 11
2005-07-08 06:58:06 51°16.225 2°52.967 344.7 12.9 335 11.1
2005-07-08 06:58:10 51°16.238 2°52.957 344.7 12.9 335 11.2
2005-07-08 06:58:15 51°16.256 2°52.944 345.3 13 336 11.2
2005-07-08 06:58:22 51°16.277 2°52.929 346 13.1 336 11.2
2005-07-08 06:58:26 51°16.291 2°52.92 346.7 13.1 336 11.2
2005-07-08 06:58:31 51°16.308 2°52.91 347.6 13.1 336 11.1
2005-07-08 06:58:36 51°16.326 2°52.899 349.1 13 340 11.3
2005-07-08 06:58:42 51°16.345 2°52.889 350.2 13 341 11.2
2005-07-08 06:58:46 51°16.361 2°52.881 351 12.9 341 11
2005-07-08 06:58:51 51°16.377 2°52.872 351.3 12.9 341 11.2
2005-07-08 06:58:56 51°16.395 2°52.862 351.7 13 341 11.2
2005-07-08 06:59:01 51°16.412 2°52.853 351.8 12.9 341 11.1
2005-07-08 06:59:06 51°16.427 2°52.845 351.8 13 341 11.2
2005-07-08 06:59:11 51°16.446 2°52.835 351.6 12.9 342 10.9
2005-07-08 06:59:16 51°16.463 2°52.826 351.6 12.9 342 11
2005-07-08 06:59:22 51°16.481 2°52.817 351.9 12.9 342 10.9
2005-07-08 06:59:26 51°16.497 2°52.809 352 12.9 343 10.8
2005-07-08 06:59:31 51°16.513 2°52.8 352 12.9 343 10.9
2005-07-08 06:59:35 51°16.527 2°52.793 352.4 12.8 343 10.7
2005-07-08 06:59:41 51°16.548 2°52.783 352.2 12.8 342 10.5
2005-07-08 06:59:46 51°16.565 2°52.775 352.2 12.9 343 10.6
2005-07-08 06:59:51 51°16.582 2°52.766 352.1 12.9 343 10.4
2005-07-08 06:59:55 51°16.595 2°52.759 351.8 12.9 342 10.3
2005-07-08 07:00:01 51°16.615 2°52.748 352 12.9 342 10.3
2005-07-08 07:00:06 51°16.631 2°52.741 351.7 12.9 342 10.2
2005-07-08 07:00:11 51°16.648 2°52.732 351.9 12.9 342 10.1
2005-07-08 07:00:16 51°16.667 2°52.724 353.2 12.8 345 9.9
2005-07-08 07:00:21 51°16.684 2°52.717 354.6 12.8 345 9.7
2005-07-08 07:00:26 51°16.701 2°52.711 355.5 12.8 345 9.7
2005-07-08 07:00:31 51°16.719 2°52.705 356.4 12.7 347 9.4
2005-07-08 07:00:36 51°16.734 2°52.699 357 12.8 348 9.4
2005-07-08 07:00:42 51°16.755 2°52.694 357.5 12.7 349 8.8
2005-07-08 07:00:46 51°16.769 2°52.689 358.2 12.7 349 8.8
2005-07-08 07:00:51 51°16.787 2°52.683 357.8 12.6 348 8.7
2005-07-08 07:00:55 51°16.8 2°52.679 357.6 12.6 348 8.8
2005-07-08 07:01:02 51°16.823 2°52.67 357 12.6 347 8.9
2005-07-08 07:01:06 51°16.839 2°52.665 356.9 12.6 347 8.6
2005-07-08 07:01:11 51°16.854 2°52.66 356.7 12.5 348 8.4
2005-07-08 07:01:16 51°16.873 2°52.652 356.6 12.6 347 8.6
2005-07-08 07:01:22 51°16.891 2°52.646 356.4 12.6 347 8.6
2005-07-08 07:01:26 51°16.905 2°52.641 356.5 12.6 348 8.7
2005-07-08 07:01:31 51°16.924 2°52.634 356.6 12.7 347 8.8
2005-07-08 07:01:35 51°16.938 2°52.629 356.6 12.7 347 8.9
2005-07-08 07:01:42 51°16.96 2°52.621 356.7 12.7 347 9
2005-07-08 07:01:46 51°16.976 2°52.616 356.7 12.7 347 9
2005-07-08 07:01:51 51°16.993 2°52.609 356.7 12.7 347 9.1
2005-07-08 07:01:56 51°17.011 2°52.603 356.6 12.9 347 9.1
2005-07-08 07:02:02 51°17.03 2°52.596 356.7 12.9 347 8.8
2005-07-08 07:02:06 51°17.044 2°52.592 356.8 12.8 348 8.7
2005-07-08 07:02:12 51°17.064 2°52.584 357.2 12.7 348 8.7
2005-07-08 07:02:16 51°17.078 2°52.58 357.3 12.7 348 8.7
2005-07-08 07:02:22 51°17.099 2°52.572 357.6 12.6 348 8.6
2005-07-08 07:02:26 51°17.114 2°52.567 357.3 12.7 347 8.6
2005-07-08 07:02:31 51°17.131 2°52.561 357 12.7 347 8.6
2005-07-08 07:02:36 51°17.148 2°52.554 356.8 12.7 347 8.7
2005-07-08 07:02:42 51°17.167 2°52.548 356.8 12.8 347 8.8
2005-07-08 07:02:46 51°17.181 2°52.543 356.7 12.8 347 8.8
2005-07-08 07:02:52 51°17.202 2°52.535 356.5 12.8 347 8.7
2005-07-08 07:02:56 51°17.217 2°52.529 356.6 12.8 347 8.9
2005-07-08 07:03:02 51°17.235 2°52.522 356.5 12.8 347 8.9
2005-07-08 07:03:06 51°17.252 2°52.516 356.5 12.8 347 8.9
2005-07-08 07:03:11 51°17.268 2°52.51 356.7 12.7 348 9.1
2005-07-08 07:03:17 51°17.287 2°52.504 357 12.7 348 9.2
2005-07-08 07:03:22 51°17.304 2°52.498 357.5 12.7 348 8.9
2005-07-08 07:03:26 51°17.318 2°52.493 357.4 12.7 348 9.1
2005-07-08 07:03:31 51°17.337 2°52.486 357 12.7 347 9.2
2005-07-08 07:03:36 51°17.354 2°52.479 357 12.8 347 9.3
2005-07-08 07:03:42 51°17.373 2°52.472 356.5 12.8 347 9.2
2005-07-08 07:03:46 51°17.387 2°52.467 356.7 12.7 347 9.2
2005-07-08 07:03:51 51°17.406 2°52.46 356.9 12.7 347 9.1
2005-07-08 07:03:55 51°17.42 2°52.455 357 12.7 347 9.3
2005-07-08 07:04:01 51°17.44 2°52.447 356.9 12.8 347 9.4
2005-07-08 07:04:06 51°17.455 2°52.442 356.7 12.8 347 9.2
2005-07-08 07:04:11 51°17.475 2°52.434 356.9 12.8 347 9.3
2005-07-08 07:04:16 51°17.492 2°52.428 356.6 12.8 347 9.4
2005-07-08 07:04:22 51°17.51 2°52.421 356.4 12.6 347 9.5
2005-07-08 07:04:26 51°17.524 2°52.415 356.6 12.6 347 9.4
2005-07-08 07:04:31 51°17.543 2°52.408 356.5 12.8 347 9.5
2005-07-08 07:04:37 51°17.562 2°52.401 356.6 12.8 347 9.5
2005-07-08 07:04:42 51°17.579 2°52.394 356.5 12.7 346 9.5
2005-07-08 07:04:46 51°17.593 2°52.388 356.4 12.7 346 9.5
2005-07-08 07:04:51 51°17.611 2°52.381 356.2 12.8 346 9.6
2005-07-08 07:04:56 51°17.629 2°52.374 356.3 12.8 346 9.5
2005-07-08 07:05:02 51°17.648 2°52.367 356.2 12.7 346 9.3
2005-07-08 07:05:06 51°17.662 2°52.361 356.2 12.7 346 9.4
2005-07-08 07:05:11 51°17.679 2°52.354 356.2 12.7 346 9.4
2005-07-08 07:05:16 51°17.698 2°52.348 356.2 12.7 348 9.5
2005-07-08 07:05:22 51°17.716 2°52.344 356.8 12.6 349 9.4
2005-07-08 07:05:26 51°17.73 2°52.343 0.7 12.4 353 9.3
2005-07-08 07:05:31 51°17.749 2°52.342 6.4 12.4 353 9.4
2005-07-08 07:05:36 51°17.766 2°52.344 8.7 12.5 -999 9.4
2005-07-08 07:05:42 51°17.785 2°52.346 11.5 12.3 3 9.4
2005-07-08 07:05:46 51°17.798 2°52.348 13 12.3 3 9.4
2005-07-08 07:05:51 51°17.817 2°52.351 14.5 12.3 6 9.6
2005-07-08 07:05:56 51°17.833 2°52.354 15.2 12.2 6 9.5
2005-07-08 07:06:02 51°17.852 2°52.358 15.2 12.3 8 9.6
2005-07-08 07:06:06 51°17.866 2°52.36 16.3 12.4 7 9.5
2005-07-08 07:06:11 51°17.884 2°52.363 16 12.4 7 9.5
2005-07-08 07:06:16 51°17.901 2°52.366 15.3 12.4 7 9.5
2005-07-08 07:06:21 51°17.918 2°52.369 15.5 12.2 7 9.6
2005-07-08 07:06:27 51°17.936 2°52.372 15.6 12.2 7 9.7
2005-07-08 07:06:31 51°17.952 2°52.375 15.3 12.3 7 9.5
2005-07-08 07:06:36 51°17.969 2°52.378 15.9 12.3 7 9.5
2005-07-08 07:06:42 51°17.988 2°52.381 16.2 12.3 7 9.6
2005-07-08 07:06:46 51°18.001 2°52.384 16.1 12.3 6 9.5
2005-07-08 07:06:51 51°18.02 2°52.387 15.7 12.3 7 9.6
2005-07-08 07:06:55 51°18.033 2°52.389 16.2 12.2 7 9.7
2005-07-08 07:07:01 51°18.053 2°52.393 15.9 12.3 6 9.7
2005-07-08 07:07:06 51°18.07 2°52.396 15.7 12.3 6 9.7
2005-07-08 07:07:12 51°18.089 2°52.399 15.9 12.3 6 9.7
2005-07-08 07:07:16 51°18.103 2°52.401 15.9 12.3 6 9.8
2005-07-08 07:07:22 51°18.123 2°52.405 15.6 12.3 6 9.7
2005-07-08 07:07:26 51°18.137 2°52.407 15.5 12.3 6 9.7
2005-07-08 07:07:31 51°18.155 2°52.409 15.2 12.3 6 9.8
2005-07-08 07:07:36 51°18.173 2°52.411 15.2 12.3 6 9.8
2005-07-08 07:07:41 51°18.189 2°52.413 14.8 12.4 5 9.8
2005-07-08 07:07:46 51°18.204 2°52.415 14.3 12.2 4 9.6
2005-07-08 07:07:51 51°18.223 2°52.417 14.5 12.1 3 9.8
2005-07-08 07:07:56 51°18.24 2°52.419 14.6 12.1 3 9.9
2005-07-08 07:08:01 51°18.255 2°52.42 15 12.2 4 9.8
2005-07-08 07:08:07 51°18.275 2°52.423 14.6 12.2 4 9.9
2005-07-08 07:08:11 51°18.29 2°52.424 14.7 12.1 4 10
2005-07-08 07:08:16 51°18.307 2°52.426 14.9 12.1 4 10.1
2005-07-08 07:08:22 51°18.326 2°52.428 15.3 12.1 4 10.2
2005-07-08 07:08:27 51°18.343 2°52.429 15.2 12.1 4 10.2
2005-07-08 07:08:31 51°18.357 2°52.431 15 12.2 4 10.4
2005-07-08 07:08:36 51°18.373 2°52.433 15.1 12.1 4 10.2
2005-07-08 07:08:41 51°18.39 2°52.435 15 12.1 3 10.1
2005-07-08 07:08:46 51°18.406 2°52.437 14.9 11.8 4 10.2
2005-07-08 07:08:51 51°18.422 2°52.439 15.3 11.8 4 10.3
2005-07-08 07:08:55 51°18.436 2°52.441 15.8 11.8 5 10.2
2005-07-08 07:09:01 51°18.457 2°52.443 15.8 11.8 5 10.3
2005-07-08 07:09:07 51°18.475 2°52.445 15.2 11.8 5 10.4
2005-07-08 07:09:11 51°18.489 2°52.447 15 11.8 5 10.5
2005-07-08 07:09:16 51°18.506 2°52.448 15 12 3 10.3
2005-07-08 07:09:22 51°18.524 2°52.451 14.6 12 3 10.5
2005-07-08 07:09:26 51°18.539 2°52.452 15 12.1 4 10.5
2005-07-08 07:09:32 51°18.557 2°52.454 15.2 12.1 4 10.6
2005-07-08 07:09:36 51°18.573 2°52.455 15.1 12.1 4 10.6
2005-07-08 07:09:42 51°18.59 2°52.458 15.1 12 4 10.7
2005-07-08 07:09:46 51°18.606 2°52.459 15.3 12 4 10.7
2005-07-08 07:09:51 51°18.622 2°52.46 15.3 12 4 10.7
2005-07-08 07:09:56 51°18.639 2°52.462 15 12 4 10.8
2005-07-08 07:10:01 51°18.656 2°52.464 15 12.1 3 10.9
2005-07-08 07:10:06 51°18.673 2°52.466 15 12.1 4 10.8
2005-07-08 07:10:11 51°18.689 2°52.467 15.2 12.1 3 10.9
2005-07-08 07:10:16 51°18.706 2°52.469 15 12.2 4 11
2005-07-08 07:10:22 51°18.725 2°52.47 14.8 12.2 3 11.1
2005-07-08 07:10:26 51°18.738 2°52.471 14.4 12.2 3 11
2005-07-08 07:10:31 51°18.756 2°52.473 14.5 12.2 3 11.1
2005-07-08 07:10:36 51°18.773 2°52.475 14.6 12.1 3 11.1
2005-07-08 07:10:42 51°18.792 2°52.476 14.9 12.1 3 11
2005-07-08 07:10:46 51°18.807 2°52.477 14.8 12.1 3 11.4
2005-07-08 07:10:52 51°18.825 2°52.479 14.5 12.1 3 11.3
2005-07-08 07:10:56 51°18.838 2°52.48 14.5 12.1 3 11.2
2005-07-08 07:11:02 51°18.859 2°52.48 13.8 12 1 11.4
2005-07-08 07:11:06 51°18.872 2°52.481 13.4 12.1 1 11.5
2005-07-08 07:11:12 51°18.892 2°52.481 13 12.1 1 11.4
2005-07-08 07:11:16 51°18.907 2°52.482 12.6 12 -999 11.7
2005-07-08 07:11:22 51°18.925 2°52.481 12.8 12.1 1 11.7
2005-07-08 07:11:26 51°18.939 2°52.482 11.8 12.1 1 11.8
2005-07-08 07:11:31 51°18.957 2°52.482 12.3 12 1 12.1
2005-07-08 07:11:36 51°18.974 2°52.482 12.3 12.1 1 11.8
2005-07-08 07:11:42 51°18.993 2°52.482 12.3 12.1 1 12.1
2005-07-08 07:11:46 51°19.008 2°52.482 12.4 12.3 1 12.3
2005-07-08 07:11:51 51°19.025 2°52.482 12.3 12.3 359 12.2
2005-07-08 07:11:56 51°19.042 2°52.482 11.8 12.3 359 12.3
2005-07-08 07:12:02 51°19.061 2°52.482 12 12.3 -999 12.3
2005-07-08 07:12:06 51°19.075 2°52.483 12.2 12.3 -999 12.3
2005-07-08 07:12:12 51°19.095 2°52.483 12.6 12.3 1 12.7
2005-07-08 07:12:17 51°19.112 2°52.484 12.6 12.3 1 12.4
2005-07-08 07:12:22 51°19.129 2°52.484 13 12.3 1 12.7
2005-07-08 07:12:27 51°19.146 2°52.485 12.9 12.3 1 12.6
2005-07-08 07:12:32 51°19.163 2°52.485 12.8 12.2 1 12.6
2005-07-08 07:12:36 51°19.176 2°52.486 12.3 12.2 1 12.8
2005-07-08 07:12:41 51°19.195 2°52.486 12.6 12.2 1 13.1
2005-07-08 07:12:46 51°19.212 2°52.486 12.6 12.1 -999 13.1
2005-07-08 07:12:51 51°19.227 2°52.486 12.7 12.1 -999 13.3
2005-07-08 07:12:56 51°19.245 2°52.488 12.3 12.1 1 13
2005-07-08 07:13:02 51°19.264 2°52.489 13 12 2 13.1
2005-07-08 07:13:06 51°19.277 2°52.489 13 12 1 13.3
2005-07-08 07:13:12 51°19.297 2°52.489 12.7 12 1 13.4
2005-07-08 07:13:16 51°19.312 2°52.489 12.7 12.1 1 13.7
2005-07-08 07:13:21 51°19.329 2°52.489 11.8 12.1 -999 13.5
2005-07-08 07:13:26 51°19.346 2°52.49 11.9 12.1 -999 13.6
2005-07-08 07:13:32 51°19.365 2°52.49 12.3 12.1 1 13.8
2005-07-08 07:13:36 51°19.38 2°52.49 12.3 12.2 -999 14
2005-07-08 07:13:42 51°19.398 2°52.491 12.3 12.3 -999 13.9
2005-07-08 07:13:46 51°19.414 2°52.491 12.4 12.2 -999 13.9
2005-07-08 07:13:51 51°19.431 2°52.491 12.2 12.3 -999 14.1
2005-07-08 07:13:57 51°19.449 2°52.491 12.2 12.3 -999 14.3
2005-07-08 07:14:01 51°19.464 2°52.491 12 12.2 1 14
2005-07-08 07:14:06 51°19.479 2°52.492 12 12.1 1 14.1
2005-07-08 07:14:11 51°19.498 2°52.492 12.3 12 1 14.3
2005-07-08 07:14:16 51°19.515 2°52.493 12.2 12.1 -999 14.1
2005-07-08 07:14:22 51°19.534 2°52.493 12.1 12.1 -999 14.2
2005-07-08 07:14:26 51°19.547 2°52.492 11.9 12.2 -999 14.4
2005-07-08 07:14:31 51°19.566 2°52.493 11.6 12.3 -999 14.4
2005-07-08 07:14:36 51°19.582 2°52.493 11.8 12.1 -999 14.6
2005-07-08 07:14:42 51°19.601 2°52.493 11.6 12.1 -999 14.6
2005-07-08 07:14:47 51°19.617 2°52.492 12 12.2 -999 14.5
2005-07-08 07:14:51 51°19.633 2°52.493 11.5 12.2 -999 14.4
2005-07-08 07:14:55 51°19.646 2°52.493 12 12.2 1 14.3
2005-07-08 07:15:01 51°19.667 2°52.494 12.2 12.2 -999 14.6
2005-07-08 07:15:06 51°19.683 2°52.494 12.5 12 2 14.8
2005-07-08 07:15:11 51°19.697 2°52.495 13 12 2 14.5
2005-07-08 07:15:16 51°19.714 2°52.496 12.8 11.9 2 14.6
2005-07-08 07:15:21 51°19.732 2°52.496 13 12 1 14.8
2005-07-08 07:15:26 51°19.749 2°52.496 12.6 12.1 1 14.7
2005-07-08 07:15:31 51°19.766 2°52.497 12.4 12.1 -999 14.9
2005-07-08 07:15:37 51°19.786 2°52.496 12.1 12.2 -999 15.1
2005-07-08 07:15:41 51°19.8 2°52.497 12.1 12.3 -999 15
2005-07-08 07:15:46 51°19.816 2°52.497 11.7 12.2 -999 15.1
2005-07-08 07:15:51 51°19.834 2°52.497 11.6 12.2 -999 15
2005-07-08 07:15:56 51°19.849 2°52.497 12.3 12.2 -999 15
2005-07-08 07:16:02 51°19.87 2°52.497 12 12.2 -999 15.2
2005-07-08 07:16:06 51°19.883 2°52.497 12 12.2 -999 15.2
2005-07-08 07:16:11 51°19.902 2°52.497 12.2 12.2 -999 15.1
2005-07-08 07:16:15 51°19.913 2°52.498 12 12.2 -999 15.2
2005-07-08 07:16:22 51°19.937 2°52.499 12.3 12.2 -999 15.3
2005-07-08 07:16:26 51°19.951 2°52.499 12.7 12.1 1 15.1
2005-07-08 07:16:31 51°19.969 2°52.5 12.5 12.1 1 14.8
2005-07-08 07:16:36 51°19.986 2°52.5 12.2 12 1 15.1
2005-07-08 07:16:42 51°20.004 2°52.5 12.4 12 1 15.2
2005-07-08 07:16:47 51°20.021 2°52.501 12.5 12 1 15.2
2005-07-08 07:16:51 51°20.036 2°52.501 12.3 12.2 1 14.9
2005-07-08 07:16:56 51°20.053 2°52.501 12.3 12.2 1 15.1
2005-07-08 07:17:02 51°20.071 2°52.501 12 12.2 1 15.3
2005-07-08 07:17:06 51°20.087 2°52.502 12.2 12.2 1 15.3
2005-07-08 07:17:11 51°20.104 2°52.502 12.3 12.3 -999 15.3
2005-07-08 07:17:16 51°20.121 2°52.503 12.5 12.3 -999 15.2
2005-07-08 07:17:22 51°20.139 2°52.503 12.5 12.2 1 15.3
2005-07-08 07:17:27 51°20.156 2°52.504 12.6 12.2 1 15.4
2005-07-08 07:17:32 51°20.173 2°52.505 12.5 12.2 1 15.2
2005-07-08 07:17:36 51°20.187 2°52.504 12.4 12.3 1 15.1
2005-07-08 07:17:42 51°20.207 2°52.504 12.1 12.3 1 15.3
2005-07-08 07:17:46 51°20.221 2°52.505 11.9 12.3 -999 15.1
2005-07-08 07:17:51 51°20.24 2°52.505 11.9 12.3 1 15.4
2005-07-08 07:17:56 51°20.255 2°52.505 11.9 12.2 -999 15.2
2005-07-08 07:18:01 51°20.274 2°52.505 12 12.3 1 15.1
2005-07-08 07:18:06 51°20.288 2°52.505 12 12.3 1 15.1
2005-07-08 07:18:12 51°20.31 2°52.506 11.9 12.3 1 15
2005-07-08 07:18:17 51°20.326 2°52.506 12.3 12.3 1 15
2005-07-08 07:18:22 51°20.343 2°52.506 12.1 12.1 1 15
2005-07-08 07:18:26 51°20.356 2°52.507 11.8 12.1 1 14.8
2005-07-08 07:18:31 51°20.375 2°52.506 11.4 12.1 -999 15
2005-07-08 07:18:35 51°20.389 2°52.506 11.1 12.1 -999 14.9
2005-07-08 07:18:42 51°20.41 2°52.505 10.8 12.2 359 14.8
2005-07-08 07:18:46 51°20.424 2°52.505 10.4 12.2 359 14.8
2005-07-08 07:18:51 51°20.441 2°52.505 10.9 12.2 359 15
2005-07-08 07:18:57 51°20.461 2°52.504 11 12.2 359 15
2005-07-08 07:19:01 51°20.476 2°52.504 10.8 12.2 359 14.8
2005-07-08 07:19:06 51°20.492 2°52.504 10.8 12.3 359 14.7
2005-07-08 07:19:11 51°20.511 2°52.503 10.6 12.4 359 15
2005-07-08 07:19:15 51°20.523 2°52.503 10.5 12.2 359 14.6
2005-07-08 07:19:22 51°20.546 2°52.503 11 12.3 -999 14.4
2005-07-08 07:19:26 51°20.56 2°52.503 10.7 12.3 -999 14.1
2005-07-08 07:19:31 51°20.579 2°52.502 10.8 12.3 -999 13.5
2005-07-08 07:19:36 51°20.595 2°52.502 10.7 12.2 359 14
2005-07-08 07:19:42 51°20.614 2°52.502 10.7 12.2 359 14.2
2005-07-08 07:19:46 51°20.63 2°52.502 10.8 12.3 -999 14.1
2005-07-08 07:19:52 51°20.649 2°52.502 11 12.4 -999 13.6
2005-07-08 07:19:56 51°20.662 2°52.502 11.1 12.3 1 14
2005-07-08 07:20:01 51°20.681 2°52.502 11.5 12.3 1 13.7
2005-07-08 07:20:06 51°20.696 2°52.503 11.5 12.3 1 13.4
2005-07-08 07:20:11 51°20.715 2°52.503 11.6 12.3 1 13.6
2005-07-08 07:20:16 51°20.732 2°52.503 11.4 12.3 1 13.7
2005-07-08 07:20:22 51°20.751 2°52.503 11.3 12.3 -999 13.7
2005-07-08 07:20:26 51°20.764 2°52.504 11.4 12.2 1 13.7
2005-07-08 07:20:31 51°20.782 2°52.505 11.8 12.2 1 13.2
2005-07-08 07:20:35 51°20.796 2°52.505 12 12.2 1 13.6
2005-07-08 07:20:42 51°20.818 2°52.506 11.8 12.1 1 13.3
2005-07-08 07:20:46 51°20.833 2°52.507 11.9 12.1 2 13.5
2005-07-08 07:20:51 51°20.849 2°52.508 12 12 2 13.8
2005-07-08 07:20:55 51°20.863 2°52.509 11.8 12 2 13.7
2005-07-08 07:21:01 51°20.883 2°52.509 11.9 12.2 1 13.7
2005-07-08 07:21:06 51°20.9 2°52.509 11.6 12.3 -999 13.9
2005-07-08 07:21:11 51°20.917 2°52.508 11 12.3 -999 13.9
2005-07-08 07:21:15 51°20.931 2°52.508 10.8 12.4 -999 14.2
2005-07-08 07:21:22 51°20.954 2°52.508 10.8 12.4 -999 14.3
2005-07-08 07:21:26 51°20.968 2°52.508 10.5 12.5 359 14.5
2005-07-08 07:21:31 51°20.986 2°52.507 10.6 12.6 359 14.3
2005-07-08 07:21:36 51°21.004 2°52.506 10.9 12.6 359 14.3
2005-07-08 07:21:42 51°21.022 2°52.501 8.7 12.3 353 14.5
2005-07-08 07:21:47 51°21.039 2°52.494 4.1 12.3 353 14.4
2005-07-08 07:21:52 51°21.055 2°52.484 358.3 12.5 344 14.5
2005-07-08 07:21:57 51°21.071 2°52.472 353.1 12.6 337 14.5
2005-07-08 07:22:02 51°21.087 2°52.459 349.6 12.8 334 14.3
2005-07-08 07:22:06 51°21.1 2°52.443 344 12.7 331 14.8
2005-07-08 07:22:11 51°21.114 2°52.426 338.3 12.7 331 15.3
2005-07-08 07:22:16 51°21.126 2°52.409 335 12.7 331 15.4
2005-07-08 07:22:21 51°21.142 2°52.387 332.7 13.2 320 15.5
2005-07-08 07:22:26 51°21.156 2°52.368 330.9 13.2 320 15.7
2005-07-08 07:22:31 51°21.17 2°52.347 330.2 13.2 320 15.8
2005-07-08 07:22:36 51°21.182 2°52.329 329.9 13.5 317 16
2005-07-08 07:22:42 51°21.198 2°52.306 329.7 13.5 318 15.7
2005-07-08 07:22:46 51°21.21 2°52.29 329.3 13.5 318 15.8
2005-07-08 07:22:51 51°21.225 2°52.268 329.6 13.5 319 15.9
2005-07-08 07:22:56 51°21.237 2°52.249 329.1 13.6 317 16.1
2005-07-08 07:23:01 51°21.252 2°52.226 328.5 13.6 317 16.3
2005-07-08 07:23:06 51°21.266 2°52.204 327.3 13.7 315 16.5
2005-07-08 07:23:11 51°21.279 2°52.183 326.4 13.7 315 16.8
2005-07-08 07:23:16 51°21.291 2°52.163 325.5 13.8 314 17
2005-07-08 07:23:22 51°21.306 2°52.136 325.2 13.8 314 17.3
2005-07-08 07:23:27 51°21.32 2°52.114 325 13.7 314 17.4
2005-07-08 07:23:31 51°21.332 2°52.094 325 13.7 314 17.9
2005-07-08 07:23:35 51°21.342 2°52.077 325.5 13.7 314 18.3
2005-07-08 07:23:42 51°21.358 2°52.05 325.1 13.6 314 18.1
2005-07-08 07:23:46 51°21.368 2°52.032 325 13.5 313 18.1
2005-07-08 07:23:51 51°21.381 2°52.01 324.8 13.5 313 18.7
2005-07-08 07:23:56 51°21.395 2°51.987 324.9 13.3 314 19.1
2005-07-08 07:24:02 51°21.41 2°51.963 325.4 13.3 314 19.3
2005-07-08 07:24:06 51°21.42 2°51.946 325.7 13.5 314 19.7
2005-07-08 07:24:12 51°21.437 2°51.921 326.5 13.5 314 20.2
2005-07-08 07:24:16 51°21.449 2°51.902 326.7 13.5 314 20.5
2005-07-08 07:24:22 51°21.464 2°51.879 327.3 13.5 316 20.4
2005-07-08 07:24:26 51°21.475 2°51.863 327.3 13.6 316 20.7
2005-07-08 07:24:31 51°21.489 2°51.84 327.7 13.4 316 21.1
2005-07-08 07:24:36 51°21.503 2°51.82 327.8 13.4 316 21
2005-07-08 07:24:41 51°21.516 2°51.8 327.6 13.3 317 21
2005-07-08 07:24:46 51°21.528 2°51.782 327.5 13.3 317 21.3
2005-07-08 07:24:51 51°21.544 2°51.761 329.5 13.3 317 21.6
2005-07-08 07:24:56 51°21.558 2°51.742 330.1 13.3 319 21.8
2005-07-08 07:25:02 51°21.574 2°51.722 331.1 13.3 319 22.1
2005-07-08 07:25:06 51°21.588 2°51.705 331.8 13.5 321 22.2
2005-07-08 07:25:11 51°21.602 2°51.686 332.5 13.5 321 22.3
2005-07-08 07:25:17 51°21.618 2°51.667 332.9 13.5 321 22.6
2005-07-08 07:25:22 51°21.633 2°51.649 334.1 13.4 324 22.4
2005-07-08 07:25:26 51°21.646 2°51.636 334.8 13.3 323 22.9
2005-07-08 07:25:31 51°21.661 2°51.618 334.8 13.3 323 23
2005-07-08 07:25:36 51°21.678 2°51.601 336.1 13.4 326 22.8
2005-07-08 07:25:42 51°21.695 2°51.583 336.6 13.4 326 23.1
2005-07-08 07:25:47 51°21.711 2°51.567 337.5 13.4 326 23
2005-07-08 07:25:52 51°21.725 2°51.553 338.8 13.4 326 23
2005-07-08 07:25:56 51°21.74 2°51.541 340.3 13 331 23.1
2005-07-08 07:26:02 51°21.758 2°51.527 341.8 12.9 332 23.1
2005-07-08 07:26:06 51°21.771 2°51.517 343.7 12.9 334 23.1
2005-07-08 07:26:11 51°21.789 2°51.503 345.3 13 335 23.2
2005-07-08 07:26:16 51°21.804 2°51.494 346.9 13 336 23.2
2005-07-08 07:26:22 51°21.824 2°51.482 348.1 13.1 339 23
2005-07-08 07:26:26 51°21.84 2°51.473 349.7 13 340 23
2005-07-08 07:26:32 51°21.858 2°51.465 352 13 343 23.1
2005-07-08 07:26:36 51°21.874 2°51.458 354.1 13 343 23.1
2005-07-08 07:26:41 51°21.891 2°51.451 355.8 13 346 22.9
2005-07-08 07:26:47 51°21.911 2°51.445 357.3 12.8 347 22.9
2005-07-08 07:26:51 51°21.927 2°51.44 358.5 12.9 349 23
2005-07-08 07:26:55 51°21.941 2°51.436 359.1 13 349 23
2005-07-08 07:27:01 51°21.962 2°51.429 359.5 13 349 23.1
2005-07-08 07:27:06 51°21.978 2°51.425 359.6 13 349 23
2005-07-08 07:27:11 51°21.998 2°51.42 0.8 13 351 22.6
2005-07-08 07:27:16 51°22.015 2°51.418 2.8 12.9 353 22.7
2005-07-08 07:27:21 51°22.032 2°51.415 4.3 12.5 354 22.7
2005-07-08 07:27:26 51°22.05 2°51.414 4.9 12.6 355 22.7
2005-07-08 07:27:31 51°22.067 2°51.411 5.8 12.6 355 22.6
2005-07-08 07:27:36 51°22.085 2°51.41 6.4 12.7 357 22.6
2005-07-08 07:27:41 51°22.101 2°51.408 6.6 12.7 357 22
2005-07-08 07:27:46 51°22.119 2°51.407 7 12.5 357 22
2005-07-08 07:27:51 51°22.136 2°51.406 7.3 12.5 357 22.1
2005-07-08 07:27:56 51°22.154 2°51.407 8.5 12.4 -999 21.9
2005-07-08 07:28:02 51°22.172 2°51.407 10.1 12.4 1 22.1
2005-07-08 07:28:07 51°22.189 2°51.408 11.1 12.3 2 22.2
2005-07-08 07:28:11 51°22.205 2°51.409 12.1 12.4 2 21.8
2005-07-08 07:28:16 51°22.222 2°51.411 12.5 12.4 3 22
2005-07-08 07:28:22 51°22.24 2°51.413 13.1 12.3 3 22.1
2005-07-08 07:28:26 51°22.254 2°51.415 13.3 12.3 3 22.1
2005-07-08 07:28:31 51°22.273 2°51.418 15.2 12.4 6 22.2
2005-07-08 07:28:36 51°22.29 2°51.42 15.4 12.5 5 22.4
2005-07-08 07:28:41 51°22.307 2°51.424 16.2 12.5 8 22.4
2005-07-08 07:28:46 51°22.322 2°51.427 16.5 12.5 8 22.3
2005-07-08 07:28:52 51°22.343 2°51.432 17.4 12.5 8 22.4
2005-07-08 07:28:57 51°22.36 2°51.435 17.1 12.5 8 22.1
2005-07-08 07:29:02 51°22.377 2°51.439 16.9 12.2 8 22.5
2005-07-08 07:29:06 51°22.391 2°51.441 16.8 12.3 7 22.5
2005-07-08 07:29:11 51°22.409 2°51.445 17.2 12.3 7 22.5
2005-07-08 07:29:15 51°22.423 2°51.447 17.2 12.3 7 22.3
2005-07-08 07:29:22 51°22.445 2°51.452 16.6 12.5 7 22.1
2005-07-08 07:29:26 51°22.459 2°51.454 15.9 12.7 6 21.6
2005-07-08 07:29:31 51°22.478 2°51.458 16.8 12.4 8 22.1
2005-07-08 07:29:37 51°22.499 2°51.46 16.6 12.5 5 22
2005-07-08 07:29:42 51°22.514 2°51.464 15.7 12.6 5 21.8
2005-07-08 07:29:46 51°22.528 2°51.464 16.4 12.3 4 22
2005-07-08 07:29:51 51°22.547 2°51.468 14.8 12.3 4 22.1
2005-07-08 07:29:57 51°22.567 2°51.471 16.6 12.5 7 22
2005-07-08 07:30:01 51°22.581 2°51.473 15.9 12.4 5 22
2005-07-08 07:30:06 51°22.596 2°51.475 15 12.4 5 22
2005-07-08 07:30:11 51°22.615 2°51.477 15.8 12.5 6 22.3
2005-07-08 07:30:16 51°22.632 2°51.48 13.9 12.3 2 22.1
2005-07-08 07:30:22 51°22.651 2°51.483 15.8 12.2 7 22.1
2005-07-08 07:30:26 51°22.665 2°51.485 15.7 12.2 7 21.9
2005-07-08 07:30:32 51°22.686 2°51.488 15 12.2 7 21.8
2005-07-08 07:30:35 51°22.697 2°51.489 15.7 12.4 5 21.8
2005-07-08 07:30:41 51°22.717 2°51.491 15.1 12.3 5 22
2005-07-08 07:30:47 51°22.735 2°51.494 14.9 12.2 4 21.9
2005-07-08 07:30:52 51°22.753 2°51.497 15.2 12.3 5 21.9
2005-07-08 07:30:57 51°22.77 2°51.498 15.6 12.4 5 22.1
2005-07-08 07:31:02 51°22.787 2°51.501 15.2 12.4 6 22
2005-07-08 07:31:06 51°22.801 2°51.503 14.7 12.4 6 22.1
2005-07-08 07:31:11 51°22.82 2°51.505 15.2 12.6 5 21.9
2005-07-08 07:31:16 51°22.835 2°51.507 14.5 12.4 4 21.6
2005-07-08 07:31:22 51°22.857 2°51.51 15 12.4 4 21.9
2005-07-08 07:31:26 51°22.87 2°51.512 15 12.5 4 21.8
2005-07-08 07:31:31 51°22.889 2°51.514 14.5 12.4 4 21.8
2005-07-08 07:31:36 51°22.906 2°51.516 14.5 12.4 4 21.6
2005-07-08 07:31:41 51°22.923 2°51.519 14.8 12.4 4 21.3
2005-07-08 07:31:46 51°22.941 2°51.521 15.8 12.3 5 21.4
2005-07-08 07:31:52 51°22.959 2°51.524 15.3 12.2 5 21.4
2005-07-08 07:31:56 51°22.972 2°51.525 14.9 12.1 4 21.2
2005-07-08 07:32:02 51°22.993 2°51.529 14.5 12.1 4 19.7
2005-07-08 07:32:06 51°23.006 2°51.53 14.9 12.2 5 21.3
2005-07-08 07:32:11 51°23.025 2°51.533 14.5 12.3 4 20.9
2005-07-08 07:32:16 51°23.042 2°51.534 14.4 12.3 3 20.3
2005-07-08 07:32:22 51°23.06 2°51.537 14.2 12.3 5 20.8
2005-07-08 07:32:26 51°23.074 2°51.537 14 12.4 4 20.5
2005-07-08 07:32:31 51°23.093 2°51.541 14.3 12.4 4 19
2005-07-08 07:32:36 51°23.11 2°51.542 14.1 12.4 3 18.2
2005-07-08 07:32:42 51°23.129 2°51.545 14.3 12.3 5 16.9
2005-07-08 07:32:46 51°23.144 2°51.547 15 12.4 5 16.4
2005-07-08 07:32:51 51°23.161 2°51.549 14.9 12 5 16.6
2005-07-08 07:32:55 51°23.174 2°51.552 14.5 12.3 5 15.8
2005-07-08 07:33:01 51°23.195 2°51.554 14.7 12.2 5 14.3
2005-07-08 07:33:07 51°23.213 2°51.557 15.1 12.2 5 13.2
2005-07-08 07:33:11 51°23.228 2°51.558 14.5 12.2 4 14.2
2005-07-08 07:33:15 51°23.241 2°51.561 14.2 12 6 14.7
2005-07-08 07:33:21 51°23.261 2°51.564 14.5 12.1 4 14.6
2005-07-08 07:33:27 51°23.281 2°51.567 14.8 12.1 4 14.4
2005-07-08 07:33:31 51°23.296 2°51.569 15 12.1 4 13.4
2005-07-08 07:33:36 51°23.312 2°51.57 14.6 12.1 4 13
2005-07-08 07:33:41 51°23.329 2°51.573 14.3 12 4 14
2005-07-08 07:33:46 51°23.346 2°51.575 14.2 12 4 14
2005-07-08 07:33:51 51°23.362 2°51.578 15 12.3 5 14
2005-07-08 07:33:56 51°23.379 2°51.58 15.3 12.2 5 13.1
2005-07-08 07:34:02 51°23.398 2°51.583 15.2 12.3 6 13.4
2005-07-08 07:34:06 51°23.411 2°51.585 15.2 12.3 6 14.6
2005-07-08 07:34:11 51°23.43 2°51.589 15 12.2 6 14.5
2005-07-08 07:34:16 51°23.447 2°51.591 15.8 12.2 5 14.6
2005-07-08 07:34:22 51°23.465 2°51.595 15 12.2 6 14.5
2005-07-08 07:34:26 51°23.48 2°51.596 15.5 12.2 6 13.8
2005-07-08 07:34:31 51°23.496 2°51.6 14.5 12.2 6 13.7
2005-07-08 07:34:36 51°23.513 2°51.602 15.2 12 5 14.7
2005-07-08 07:34:42 51°23.531 2°51.605 15.1 12.2 6 15.1
2005-07-08 07:34:46 51°23.547 2°51.606 14.9 12.2 6 14.7
2005-07-08 07:34:51 51°23.564 2°51.609 14.3 12.2 6 14.4
2005-07-08 07:34:57 51°23.583 2°51.611 14.7 12.4 6 13.4
2005-07-08 07:35:02 51°23.599 2°51.613 13.5 12.2 4 12.3
2005-07-08 07:35:06 51°23.613 2°51.614 14 12.2 4 13.3
2005-07-08 07:35:11 51°23.63 2°51.615 13.5 12.2 4 14.1
2005-07-08 07:35:16 51°23.648 2°51.618 14 12.2 5 14.9
2005-07-08 07:35:22 51°23.666 2°51.621 14.3 12.1 5 14.9
2005-07-08 07:35:26 51°23.679 2°51.623 14.9 12.1 5 15.6
2005-07-08 07:35:32 51°23.7 2°51.626 15.3 12.1 5 15.8
2005-07-08 07:35:36 51°23.715 2°51.627 15 12.1 5 15.8
2005-07-08 07:35:42 51°23.732 2°51.63 14.6 12.1 6 16.4
2005-07-08 07:35:46 51°23.748 2°51.631 13.7 12.1 6 16.1
2005-07-08 07:35:51 51°23.764 2°51.634 14.5 12.2 6 16.1
2005-07-08 07:35:57 51°23.783 2°51.636 14.4 12.2 6 16.4
2005-07-08 07:36:02 51°23.8 2°51.637 14.1 12.1 4 16.6
2005-07-08 07:36:06 51°23.814 2°51.639 14.2 12.1 4 17.1
2005-07-08 07:36:11 51°23.832 2°51.642 14.5 12.3 6 17.1
2005-07-08 07:36:16 51°23.847 2°51.644 14.8 12.2 5 17
2005-07-08 07:36:22 51°23.868 2°51.647 14.8 12.2 5 17.7
2005-07-08 07:36:26 51°23.881 2°51.648 14.5 12 4 17.9
2005-07-08 07:36:31 51°23.9 2°51.65 13.8 12.3 4 18
2005-07-08 07:36:37 51°23.92 2°51.652 14.4 12.3 4 17.9
2005-07-08 07:36:42 51°23.935 2°51.653 14 12.2 3 15.6
2005-07-08 07:36:46 51°23.951 2°51.655 14.2 12.3 6 16.9
2005-07-08 07:36:52 51°23.969 2°51.658 13.4 12.2 2 18.2
2005-07-08 07:36:56 51°23.982 2°51.659 15.2 12.2 5 18.5
2005-07-08 07:37:02 51°24.003 2°51.662 14.7 12.2 5 18.8
2005-07-08 07:37:06 51°24.016 2°51.664 14.6 12.2 5 18.8
2005-07-08 07:37:11 51°24.035 2°51.665 15 12.2 5 18.8
2005-07-08 07:37:17 51°24.054 2°51.667 14.9 12.3 4 18.5
2005-07-08 07:37:22 51°24.07 2°51.669 14.6 12.3 3 17.2
2005-07-08 07:37:26 51°24.084 2°51.671 14.6 12.3 3 17.6
2005-07-08 07:37:31 51°24.1 2°51.672 14.4 12.3 4 18.4
2005-07-08 07:37:35 51°24.116 2°51.675 14.5 12.3 5 18.6
2005-07-08 07:37:42 51°24.139 2°51.677 14.6 12.4 4 17.9
2005-07-08 07:37:46 51°24.154 2°51.678 14.3 12.3 3 17.8
2005-07-08 07:37:51 51°24.169 2°51.68 14.6 12.3 3 16.6
2005-07-08 07:37:55 51°24.185 2°51.682 14.2 12.4 3 18.3
2005-07-08 07:38:02 51°24.207 2°51.684 14.9 12.2 4 18.8
2005-07-08 07:38:06 51°24.222 2°51.686 14.8 12.2 4 19
2005-07-08 07:38:11 51°24.239 2°51.688 14.5 12.2 4 18.9
2005-07-08 07:38:17 51°24.259 2°51.69 15 12.3 4 19.3
2005-07-08 07:38:22 51°24.274 2°51.692 14.5 12.3 4 19.8
2005-07-08 07:38:26 51°24.288 2°51.693 14.5 12.3 4 19.9
2005-07-08 07:38:32 51°24.309 2°51.695 14.5 12.4 2 19.8
2005-07-08 07:38:36 51°24.324 2°51.697 14.8 12.4 2 20.2
2005-07-08 07:38:42 51°24.342 2°51.699 13.8 12.4 2 19.3
2005-07-08 07:38:46 51°24.356 2°51.699 14 12.3 5 19
2005-07-08 07:38:52 51°24.376 2°51.702 14.2 12.2 2 20.2
2005-07-08 07:38:56 51°24.392 2°51.703 14.7 12.3 4 20.5
2005-07-08 07:39:02 51°24.41 2°51.705 14.1 12.1 3 20.4
2005-07-08 07:39:07 51°24.427 2°51.706 13.6 12 3 20.4
2005-07-08 07:39:11 51°24.443 2°51.708 13.7 12 5 20.1
2005-07-08 07:39:16 51°24.459 2°51.71 14.1 12 3 20.4
2005-07-08 07:39:22 51°24.477 2°51.711 14.6 12.1 4 20.7
2005-07-08 07:39:26 51°24.491 2°51.712 14.4 12.1 4 20.7
2005-07-08 07:39:31 51°24.508 2°51.714 14 12.1 4 20.8
2005-07-08 07:39:35 51°24.523 2°51.714 14.1 12.1 4 20.9
2005-07-08 07:39:41 51°24.544 2°51.717 14 12.1 4 21
2005-07-08 07:39:46 51°24.56 2°51.719 14.5 12.2 4 21.1
2005-07-08 07:39:52 51°24.579 2°51.721 14.5 12.1 3 20.7
2005-07-08 07:39:56 51°24.594 2°51.722 14.4 12.1 4 20.9
2005-07-08 07:40:02 51°24.612 2°51.724 14.3 12.3 4 21.1
2005-07-08 07:40:06 51°24.625 2°51.725 14 12.3 4 20.9
2005-07-08 07:40:11 51°24.644 2°51.727 14.1 12.3 4 21.1
2005-07-08 07:40:17 51°24.663 2°51.729 14.1 12.1 4 21.1
2005-07-08 07:40:22 51°24.68 2°51.731 14.3 12.1 4 21
2005-07-08 07:40:26 51°24.693 2°51.733 14.2 12.1 3 21.4
2005-07-08 07:40:31 51°24.711 2°51.735 14.9 12.1 4 21.1
2005-07-08 07:40:36 51°24.726 2°51.737 14.3 12.2 4 21.2
2005-07-08 07:40:41 51°24.745 2°51.739 14.5 12.2 5 21.2
2005-07-08 07:40:46 51°24.762 2°51.741 14.5 12.2 2 21.1
2005-07-08 07:40:51 51°24.779 2°51.743 14.7 12.2 5 21
2005-07-08 07:40:56 51°24.795 2°51.745 14.2 12.2 4 21.2
2005-07-08 07:41:01 51°24.813 2°51.747 15 12.3 5 21.3
2005-07-08 07:41:07 51°24.831 2°51.75 15.2 12.3 5 21.3
2005-07-08 07:41:11 51°24.846 2°51.752 14.2 12.3 4 21.4
2005-07-08 07:41:16 51°24.862 2°51.754 15.2 12.1 4 21.5
2005-07-08 07:41:22 51°24.881 2°51.756 14.4 12 3 21.3
2005-07-08 07:41:27 51°24.898 2°51.757 13.8 12 3 21.5
2005-07-08 07:41:31 51°24.913 2°51.758 13.4 12 3 21.5
2005-07-08 07:41:36 51°24.93 2°51.76 13.9 12.2 3 21.5
2005-07-08 07:41:42 51°24.949 2°51.762 12.9 12.2 3 21.5
2005-07-08 07:41:46 51°24.962 2°51.762 13.8 12.2 3 21.3
2005-07-08 07:41:51 51°24.98 2°51.765 14 12.2 3 21.5
2005-07-08 07:41:56 51°24.999 2°51.766 14 12.1 4 21.6
2005-07-08 07:42:02 51°25.017 2°51.768 13.9 12.2 3 21.4
2005-07-08 07:42:06 51°25.031 2°51.769 14.5 12.2 3 21.4
2005-07-08 07:42:12 51°25.052 2°51.772 14.2 12.3 5 21.5
2005-07-08 07:42:16 51°25.067 2°51.774 13.7 12.3 5 21.5
2005-07-08 07:42:22 51°25.085 2°51.777 14.9 12.3 6 21.8
2005-07-08 07:42:26 51°25.101 2°51.78 15.4 12.5 5 21.7
2005-07-08 07:42:31 51°25.118 2°51.783 16.3 12.5 7 21.8
2005-07-08 07:42:35 51°25.131 2°51.786 16.8 12.3 7 21.9
2005-07-08 07:42:41 51°25.152 2°51.791 17 12.6 7 21.8
2005-07-08 07:42:46 51°25.168 2°51.794 16.8 12.6 7 21.9
2005-07-08 07:42:52 51°25.188 2°51.798 17.4 12.4 8 21.9
2005-07-08 07:42:56 51°25.202 2°51.802 17.4 12.4 8 22
2005-07-08 07:43:02 51°25.222 2°51.805 17.7 12.6 8 22
2005-07-08 07:43:07 51°25.24 2°51.81 17.2 12.6 8 21.9
2005-07-08 07:43:11 51°25.254 2°51.812 17.2 12.1 6 22.1
2005-07-08 07:43:17 51°25.273 2°51.816 16.7 12.2 8 22
2005-07-08 07:43:22 51°25.29 2°51.82 16.7 12.2 8 22.3
2005-07-08 07:43:26 51°25.303 2°51.823 17.4 12.3 8 22.3
2005-07-08 07:43:31 51°25.321 2°51.827 16.8 12.1 7 22.4
2005-07-08 07:43:36 51°25.337 2°51.83 17.5 12.2 7 22.6
2005-07-08 07:43:42 51°25.356 2°51.833 17.2 12.2 7 22.8
2005-07-08 07:43:46 51°25.37 2°51.837 16.1 12.1 6 22.9
2005-07-08 07:43:51 51°25.388 2°51.84 17.7 12.1 6 23.1
2005-07-08 07:43:57 51°25.407 2°51.844 16.7 12.1 6 23.2
2005-07-08 07:44:02 51°25.423 2°51.847 17.4 12.1 7 23.4
2005-07-08 07:44:06 51°25.437 2°51.85 17 12.2 6 23.8
2005-07-08 07:44:11 51°25.453 2°51.853 17 12.2 6 24.3
2005-07-08 07:44:17 51°25.473 2°51.858 16.9 12.2 8 24.5
2005-07-08 07:44:22 51°25.49 2°51.863 17.4 12.2 8 25.1
2005-07-08 07:44:26 51°25.505 2°51.866 18.2 12.2 8 26
2005-07-08 07:44:32 51°25.523 2°51.87 17.4 12.2 8 26.6
2005-07-08 07:44:36 51°25.536 2°51.874 17.6 12.1 10 27.2
2005-07-08 07:44:42 51°25.556 2°51.879 18.1 12.1 8 28
2005-07-08 07:44:47 51°25.573 2°51.885 18.6 12.1 9 28.8
2005-07-08 07:44:52 51°25.589 2°51.89 20.1 12.2 12 29.5
2005-07-08 07:44:55 51°25.601 2°51.895 21.4 12.1 12 30
2005-07-08 07:45:02 51°25.622 2°51.903 21.8 12.1 12 29.7
2005-07-08 07:45:06 51°25.636 2°51.908 22.3 12.2 14 29.5
2005-07-08 07:45:11 51°25.653 2°51.917 22.1 12.2 16 28.9
2005-07-08 07:45:16 51°25.67 2°51.924 23.8 12.2 17 28.3
2005-07-08 07:45:22 51°25.686 2°51.935 25.3 12.2 17 27.7
2005-07-08 07:45:26 51°25.701 2°51.944 28.2 12.1 23 27.5
2005-07-08 07:45:32 51°25.717 2°51.956 29.9 12.1 23 27.7
2005-07-08 07:45:36 51°25.73 2°51.964 31.5 12.1 26 27.3
2005-07-08 07:45:42 51°25.748 2°51.979 31.9 12.1 25 27.1
2005-07-08 07:45:47 51°25.762 2°51.99 32.6 11.9 26 26.9
2005-07-08 07:45:52 51°25.778 2°52.003 34 11.9 27 26.5
2005-07-08 07:45:56 51°25.79 2°52.014 35.5 11.9 29 26.3
2005-07-08 07:46:02 51°25.805 2°52.029 36.4 11.9 29 25.9
2005-07-08 07:46:06 51°25.818 2°52.042 37.3 11.9 29 25.3
2005-07-08 07:46:11 51°25.83 2°52.055 39.5 11.8 33 25
2005-07-08 07:46:16 51°25.845 2°52.068 38.9 11.8 33 25
2005-07-08 07:46:22 51°25.862 2°52.083 37.8 11.8 30 25.1
2005-07-08 07:46:27 51°25.878 2°52.096 36.3 11.8 28 25.3
2005-07-08 07:46:31 51°25.889 2°52.106 36.1 11.9 29 25.3
2005-07-08 07:46:35 51°25.901 2°52.115 36.2 11.8 27 25.2
2005-07-08 07:46:42 51°25.919 2°52.132 35.3 11.8 29 25.4
2005-07-08 07:46:46 51°25.931 2°52.142 36.2 11.9 31 25.4
2005-07-08 07:46:51 51°25.946 2°52.154 35.5 11.9 31 25.6
2005-07-08 07:46:56 51°25.961 2°52.166 35.3 11.9 31 25.5
2005-07-08 07:47:01 51°25.977 2°52.179 34.4 11.9 31 25.6
2005-07-08 07:47:06 51°25.991 2°52.19 34.8 12 28 26
2005-07-08 07:47:12 51°26.008 2°52.205 34.9 11.9 28 25.9
2005-07-08 07:47:16 51°26.021 2°52.217 35 11.7 27 25.7
2005-07-08 07:47:22 51°26.037 2°52.23 36.2 11.7 30 25.8
2005-07-08 07:47:26 51°26.05 2°52.241 35.5 11.7 30 25.8
2005-07-08 07:47:31 51°26.065 2°52.253 35.5 11.9 27 26
2005-07-08 07:47:35 51°26.076 2°52.262 35.1 11.9 27 26.1
2005-07-08 07:47:42 51°26.095 2°52.28 35 11.9 27 26.5
2005-07-08 07:47:46 51°26.109 2°52.29 36.2 11.9 27 26.6
2005-07-08 07:47:52 51°26.124 2°52.305 35.9 11.9 27 26.4
2005-07-08 07:47:56 51°26.138 2°52.317 37 12.1 30 26.5
2005-07-08 07:48:02 51°26.153 2°52.331 36.7 12.1 28 26.8
2005-07-08 07:48:06 51°26.165 2°52.341 36.9 12 30 26.7
2005-07-08 07:48:11 51°26.18 2°52.354 36.4 12 30 26.6
2005-07-08 07:48:16 51°26.196 2°52.369 36.4 12 30 26.7
2005-07-08 07:48:22 51°26.212 2°52.384 36.7 12 30 26.6
2005-07-08 07:48:26 51°26.223 2°52.394 36.9 11.9 30 26.6
2005-07-08 07:48:31 51°26.239 2°52.409 37.1 11.9 30 26.6
2005-07-08 07:48:35 51°26.25 2°52.418 37.5 11.9 30 26.4
2005-07-08 07:48:42 51°26.269 2°52.436 37.2 11.9 31 26.4
2005-07-08 07:48:46 51°26.28 2°52.446 37.5 11.8 30 26.3
2005-07-08 07:48:51 51°26.296 2°52.461 37 12.1 30 26.2
2005-07-08 07:48:56 51°26.311 2°52.475 37.1 12.1 31 26.3
2005-07-08 07:49:02 51°26.327 2°52.49 37.1 12.1 29 26.6
2005-07-08 07:49:06 51°26.34 2°52.502 37.1 12.1 30 26.5
2005-07-08 07:49:12 51°26.356 2°52.516 36.5 12.1 30 26.6
2005-07-08 07:49:16 51°26.369 2°52.529 36.2 12 30 26.2
2005-07-08 07:49:21 51°26.383 2°52.542 37 12 30 26.6
2005-07-08 07:49:26 51°26.398 2°52.554 36.4 12 30 26.5
2005-07-08 07:49:31 51°26.412 2°52.568 37.3 12.1 31 26.7
2005-07-08 07:49:36 51°26.427 2°52.581 37 12 29 27
2005-07-08 07:49:41 51°26.441 2°52.594 36.6 12.1 30 27.2
2005-07-08 07:49:46 51°26.456 2°52.608 36.3 12.1 29 27.2
2005-07-08 07:49:51 51°26.47 2°52.621 36.9 12.2 31 27
2005-07-08 07:49:56 51°26.485 2°52.634 37.1 12.1 31 27
2005-07-08 07:50:02 51°26.501 2°52.649 37 12.1 31 27
2005-07-08 07:50:06 51°26.513 2°52.66 36.6 12.1 30 27.1
2005-07-08 07:50:11 51°26.529 2°52.674 36.6 12 30 26.7
2005-07-08 07:50:16 51°26.542 2°52.685 35.9 12.1 29 26.5
2005-07-08 07:50:21 51°26.558 2°52.7 36.2 12.1 30 26.8
2005-07-08 07:50:26 51°26.571 2°52.712 35.5 12.1 30 27.1
2005-07-08 07:50:31 51°26.587 2°52.725 36.6 12.1 30 27.3
2005-07-08 07:50:36 51°26.602 2°52.739 35.9 12.1 30 27.1
2005-07-08 07:50:42 51°26.618 2°52.753 36.7 12 31 27.1
2005-07-08 07:50:46 51°26.629 2°52.764 36.3 12 31 27.3
2005-07-08 07:50:51 51°26.646 2°52.779 35.6 12 31 27.2
2005-07-08 07:50:55 51°26.658 2°52.789 36.2 12 31 27.3
2005-07-08 07:51:02 51°26.677 2°52.807 36.2 12 31 27.4
2005-07-08 07:51:06 51°26.691 2°52.817 36.1 12 31 27.5
2005-07-08 07:51:11 51°26.706 2°52.83 35.1 12.2 25 27.7
2005-07-08 07:51:16 51°26.721 2°52.842 36 12.2 29 27.7
2005-07-08 07:51:22 51°26.737 2°52.856 36.3 12.1 27 27.7
2005-07-08 07:51:26 51°26.749 2°52.866 35.8 12 28 27.3
2005-07-08 07:51:32 51°26.766 2°52.881 36.3 12 28 27.2
2005-07-08 07:51:36 51°26.78 2°52.893 36.5 12 28 27.3
2005-07-08 07:51:42 51°26.796 2°52.907 36.1 12 28 27.3
2005-07-08 07:51:46 51°26.807 2°52.917 36.4 11.9 29 27.4
2005-07-08 07:51:52 51°26.825 2°52.932 37 11.9 29 27.7
2005-07-08 07:51:56 51°26.836 2°52.942 36.1 11.9 29 27.4
2005-07-08 07:52:02 51°26.854 2°52.959 35.6 11.9 29 27.5
2005-07-08 07:52:06 51°26.867 2°52.969 36.3 11.9 29 27.4
2005-07-08 07:52:12 51°26.883 2°52.983 36.8 12 28 27.1
2005-07-08 07:52:16 51°26.897 2°52.995 36.1 11.9 29 27.2
2005-07-08 07:52:22 51°26.912 2°53.008 36.3 11.8 29 27.5
2005-07-08 07:52:26 51°26.925 2°53.02 36.6 12 29 27.8
2005-07-08 07:52:31 51°26.94 2°53.033 36.6 12.1 29 27.8
2005-07-08 07:52:37 51°26.956 2°53.047 36.2 12.1 29 28.2
2005-07-08 07:52:42 51°26.97 2°53.06 36.9 12.1 29 27.8
2005-07-08 07:52:46 51°26.983 2°53.073 36.2 12 29 27
2005-07-08 07:52:51 51°26.998 2°53.085 36.8 11.9 27 27.1
2005-07-08 07:52:57 51°27.014 2°53.099 36.2 11.9 27 27.4
2005-07-08 07:53:02 51°27.028 2°53.111 36.3 11.9 29 26.9
2005-07-08 07:53:06 51°27.039 2°53.122 36.7 11.9 29 27.2
2005-07-08 07:53:11 51°27.055 2°53.137 36.2 11.9 29 27.4
2005-07-08 07:53:15 51°27.067 2°53.147 36.9 11.9 29 25.8
2005-07-08 07:53:22 51°27.085 2°53.164 36.5 12.1 29 25.6
2005-07-08 07:53:26 51°27.097 2°53.174 36.2 12.1 29 27.2
2005-07-08 07:53:31 51°27.113 2°53.19 36.2 12 29 27.8
2005-07-08 07:53:37 51°27.129 2°53.203 37 11.8 30 27.6
2005-07-08 07:53:42 51°27.143 2°53.218 36.6 11.9 31 27.5
2005-07-08 07:53:46 51°27.156 2°53.229 37.1 12 29 27
2005-07-08 07:53:51 51°27.17 2°53.242 36.8 11.9 30 24.4
2005-07-08 07:53:56 51°27.184 2°53.255 37.2 11.7 31 26.3
2005-07-08 07:54:02 51°27.201 2°53.27 37.1 11.6 29 26.5
2005-07-08 07:54:06 51°27.213 2°53.279 35.5 11.8 28 26.2
2005-07-08 07:54:11 51°27.228 2°53.29 34.1 11.8 28 24.3
2005-07-08 07:54:15 51°27.24 2°53.298 32.1 11.8 23 25.2
2005-07-08 07:54:22 51°27.259 2°53.312 32.2 11.8 23 26.2
2005-07-08 07:54:26 51°27.271 2°53.321 31.7 11.7 23 27.2
2005-07-08 07:54:31 51°27.287 2°53.333 31.6 11.8 25 27.3
2005-07-08 07:54:36 51°27.302 2°53.344 31.9 11.8 23 26.8
2005-07-08 07:54:42 51°27.318 2°53.354 31.6 11.8 24 23.6
2005-07-08 07:54:46 51°27.33 2°53.362 30.9 11.9 23 25.2
2005-07-08 07:54:52 51°27.349 2°53.376 30.8 11.9 23 26.5
2005-07-08 07:54:56 51°27.361 2°53.384 30.6 11.9 23 26.4
2005-07-08 07:55:01 51°27.378 2°53.396 30.8 11.9 23 26.2
2005-07-08 07:55:06 51°27.393 2°53.406 31.8 11.9 23 25.7
2005-07-08 07:55:11 51°27.408 2°53.417 31.2 12.1 24 22.9
2005-07-08 07:55:17 51°27.425 2°53.429 31.7 12.1 24 23.6
2005-07-08 07:55:22 51°27.44 2°53.439 31.5 11.9 24 24
2005-07-08 07:55:26 51°27.452 2°53.448 30.9 11.9 22 22.9
2005-07-08 07:55:31 51°27.469 2°53.459 30.1 11.9 22 24.4
2005-07-08 07:55:36 51°27.482 2°53.47 30.7 12.1 23 24.5
2005-07-08 07:55:42 51°27.501 2°53.483 31.8 12.1 23 24
2005-07-08 07:55:46 51°27.513 2°53.492 31.8 11.7 25 23.7
2005-07-08 07:55:52 51°27.53 2°53.504 31.5 11.8 25 21.4
2005-07-08 07:55:56 51°27.544 2°53.514 31.8 11.8 25 22.4
2005-07-08 07:56:02 51°27.56 2°53.527 31.6 11.8 24 20.6
2005-07-08 07:56:06 51°27.574 2°53.536 31.2 11.8 25 21.5